Time;durP1;ratioP1;P1;durP2;ratioP2;P2;SDS_P1;SDS_P2;PMS_P1;PMS_P2;Temp;Humidity;BMP_temperature;BMP_pressure;BME280_temperature;BME280_humidity;BME280_pressure;Samples;Min_cycle;Max_cycle;Signal;HPM_P1;HPM_P2
2022/05/11 00:00:33;;;;;;;5.73;5.10;;;;;;;16.01;70.80;98727.75;5051510;28;20262;-51
2022/05/11 00:03:00;;;;;;;6.43;4.70;;;;;;;15.97;71.21;98726.47;5052487;28;20215;-50
2022/05/11 00:05:28;;;;;;;5.20;4.70;;;;;;;15.91;71.66;98724.56;5051881;28;20211;-51
2022/05/11 00:07:55;;;;;;;7.27;4.77;;;;;;;15.90;71.89;98715.88;5051970;28;20588;-51
2022/05/11 00:10:21;;;;;;;5.00;4.50;;;;;;;15.91;71.27;98720.16;5052228;28;20310;-51
2022/05/11 00:12:49;;;;;;;5.30;4.80;;;;;;;15.88;72.48;98717.88;5052177;28;20623;-51
2022/05/11 00:15:20;;;;;;;5.23;4.43;;;;;;;15.85;72.21;98718.22;5051268;28;21063;-51
2022/05/11 00:17:47;;;;;;;7.37;4.53;;;;;;;15.82;72.09;98717.78;5052093;28;20271;-51
2022/05/11 00:20:16;;;;;;;6.33;4.90;;;;;;;15.71;73.06;98711.13;5051829;28;20224;-51
2022/05/11 00:22:43;;;;;;;7.10;4.90;;;;;;;15.63;73.41;98714.69;5051535;28;20207;-50
2022/05/11 00:25:13;;;;;;;7.30;5.27;;;;;;;15.68;73.07;98709.69;5051689;28;20680;-51
2022/05/11 00:27:40;;;;;;;5.40;4.80;;;;;;;15.63;73.39;98710.22;5051553;28;20197;-51
2022/05/11 00:30:08;;;;;;;5.20;4.70;;;;;;;15.55;74.10;98704.25;5051621;28;20182;-51
2022/05/11 00:32:37;;;;;;;6.93;4.73;;;;;;;15.53;74.38;98700.97;5051942;28;20188;-51
2022/05/11 00:35:05;;;;;;;6.70;5.00;;;;;;;15.47;74.93;98700.72;5050681;28;20235;-51
2022/05/11 00:37:31;;;;;;;5.70;4.87;;;;;;;15.42;75.10;98707.50;5051640;28;20286;-50
2022/05/11 00:39:58;;;;;;;5.47;4.83;;;;;;;15.39;75.13;98703.44;5051574;28;20194;-52
2022/05/11 00:42:44;;;;;;;6.37;4.87;;;;;;;15.37;74.96;98700.16;5052219;28;20183;-50
2022/05/11 00:45:12;;;;;;;5.23;4.73;;;;;;;15.41;74.88;98701.44;5043814;28;20220;-52
2022/05/11 00:47:45;;;;;;;5.30;4.80;;;;;;;15.50;73.83;98689.00;5031370;28;20192;-52
2022/05/11 00:50:17;;;;;;;5.47;4.60;;;;;;;15.55;74.11;98693.72;5047620;28;20204;-52
2022/05/11 00:52:48;;;;;;;5.43;4.93;;;;;;;15.56;74.42;98687.47;5051139;28;20237;-50
2022/05/11 00:55:17;;;;;;;5.70;5.10;;;;;;;15.58;73.38;98688.91;5051257;28;20230;-51
2022/05/11 00:57:50;;;;;;;8.33;4.80;;;;;;;15.65;73.55;98683.75;5051543;28;20560;-50
2022/05/11 01:00:18;;;;;;;8.47;4.97;;;;;;;15.69;73.18;98682.38;5049731;28;20193;-51
2022/05/11 01:02:52;;;;;;;5.03;4.53;;;;;;;15.75;72.93;98686.94;5051387;28;20191;-51
2022/05/11 01:05:19;;;;;;;5.07;4.60;;;;;;;15.73;73.30;98690.72;5050962;28;20203;-51
2022/05/11 01:07:47;;;;;;;6.57;4.87;;;;;;;15.74;73.07;98687.91;5051468;28;20671;-50
2022/05/11 01:10:13;;;;;;;7.40;5.00;;;;;;;15.67;73.17;98681.75;5047377;28;20201;-51
2022/05/11 01:12:43;;;;;;;5.60;5.00;;;;;;;15.61;73.42;98685.13;5050210;28;20221;-51
2022/05/11 01:15:31;;;;;;;4.93;4.43;;;;;;;15.63;73.14;98675.22;5043960;28;20231;-51
2022/05/11 01:18:00;;;;;;;8.03;5.23;;;;;;;15.74;73.30;98673.94;5031362;28;20364;-51
2022/05/11 01:20:30;;;;;;;6.23;4.80;;;;;;;15.67;73.23;98680.94;5049110;28;20231;-53
2022/05/11 01:23:03;;;;;;;5.93;4.80;;;;;;;15.61;73.97;98674.59;5050864;28;20189;-50
2022/05/11 01:25:31;;;;;;;9.20;5.23;;;;;;;15.59;73.70;98679.22;5050586;28;20583;-52
2022/05/11 01:28:03;;;;;;;6.97;4.53;;;;;;;15.65;73.56;98679.28;5052376;28;20219;-51
2022/05/11 01:30:30;;;;;;;5.27;4.77;;;;;;;15.74;72.64;98672.13;5055299;28;20181;-52
2022/05/11 01:32:57;;;;;;;5.80;5.10;;;;;;;15.87;72.57;98678.59;5055183;28;20666;-50
2022/05/11 01:35:47;;;;;;;6.00;5.40;;;;;;;16.10;71.12;98675.81;5054758;28;20200;-50
2022/05/11 01:38:23;;;;;;;5.50;5.00;;;;;;;16.09;71.36;98674.19;5054994;28;20187;-53
2022/05/11 01:40:52;;;;;;;7.70;5.00;;;;;;;16.00;71.45;98678.72;5055284;28;20188;-52
2022/05/11 01:43:21;;;;;;;7.57;5.40;;;;;;;15.95;72.08;98667.94;5054828;28;20739;-51
2022/05/11 01:45:49;;;;;;;6.30;4.97;;;;;;;15.94;72.16;98669.75;5053185;28;20253;-51
2022/05/11 01:48:17;;;;;;;8.67;5.17;;;;;;;15.88;72.17;98678.41;5054688;28;20206;-51
2022/05/11 01:50:44;;;;;;;5.70;5.10;;;;;;;15.91;72.25;98670.13;5054236;28;20210;-50
2022/05/11 01:53:11;;;;;;;7.47;4.93;;;;;;;16.13;70.57;98670.19;5054818;28;20687;-51
2022/05/11 01:55:38;;;;;;;5.83;4.77;;;;;;;16.16;71.30;98663.72;5054675;28;20199;-51
2022/05/11 01:58:09;;;;;;;5.70;5.13;;;;;;;16.04;71.41;98673.94;5054656;28;20197;-50
2022/05/11 02:00:37;;;;;;;5.53;5.00;;;;;;;16.12;70.32;98668.56;5053308;28;20190;-51
2022/05/11 02:03:05;;;;;;;7.23;5.50;;;;;;;16.21;69.84;98658.72;5054222;28;20193;-50
2022/05/11 02:08:15;;;;;;;7.80;4.90;;;;;;;16.57;67.41;98667.56;5053347;28;20197;-51
2022/05/11 02:10:43;;;;;;;6.27;4.70;;;;;;;16.90;66.60;98667.88;5054633;28;20321;-51
2022/05/11 02:13:11;;;;;;;6.10;4.83;;;;;;;16.74;67.42;98658.38;5054400;28;20719;-51
2022/05/11 02:15:38;;;;;;;5.13;4.40;;;;;;;16.78;66.46;98658.84;5053856;28;20253;-53
2022/05/11 02:18:05;;;;;;;5.90;4.17;;;;;;;16.92;65.15;98657.94;5054146;28;20667;-51
2022/05/11 02:20:32;;;;;;;7.97;4.67;;;;;;;16.89;66.37;98660.97;5034900;28;20280;-50
2022/05/11 02:22:59;;;;;;;6.37;4.60;;;;;;;16.85;65.93;98664.16;5034349;28;20199;-51
2022/05/11 02:25:27;;;;;;;7.70;4.40;;;;;;;16.78;66.20;98664.91;5034119;28;20209;-51
2022/05/11 02:27:54;;;;;;;5.10;4.60;;;;;;;16.99;64.63;98665.09;5038124;28;20197;-51
2022/05/11 02:30:24;;;;;;;10.47;5.27;;;;;;;16.74;67.43;98666.28;5051903;28;20274;-51
2022/05/11 02:32:52;;;;;;;6.50;4.10;;;;;;;16.78;66.13;98664.13;5052904;28;20212;-51
2022/05/11 02:35:20;;;;;;;8.23;4.70;;;;;;;16.73;66.20;98662.03;5052982;28;20213;-51
2022/05/11 02:37:50;;;;;;;6.60;4.87;;;;;;;16.79;65.34;98665.75;5051803;28;20260;-52
2022/05/11 02:40:20;;;;;;;7.73;4.40;;;;;;;16.92;64.71;98668.50;5053317;28;20548;-52
2022/05/11 02:42:47;;;;;;;6.03;4.43;;;;;;;17.13;63.25;98652.84;5049869;28;20186;-50
2022/05/11 02:45:15;;;;;;;7.33;4.30;;;;;;;17.23;62.82;98659.38;5057124;28;20220;-51
2022/05/11 02:47:44;;;;;;;8.20;4.50;;;;;;;17.41;61.62;98663.34;5058574;28;20192;-51
2022/05/11 02:50:13;;;;;;;5.17;4.67;;;;;;;17.25;64.23;98659.22;5059751;28;20189;-52
2022/05/11 02:52:40;;;;;;;6.23;4.90;;;;;;;17.07;64.77;98663.13;5069646;28;20215;-52
2022/05/11 02:55:08;;;;;;;5.93;4.47;;;;;;;17.09;62.98;98660.31;5072797;28;20223;-50
2022/05/11 02:57:36;;;;;;;5.97;4.20;;;;;;;17.06;64.51;98666.78;5072982;28;20193;-50
2022/05/11 03:00:05;;;;;;;7.73;5.10;;;;;;;16.84;65.45;98663.34;5071726;28;20372;-51
2022/05/11 03:02:33;;;;;;;5.53;4.37;;;;;;;16.70;65.61;98661.59;5073148;28;20180;-50
2022/05/11 03:05:01;;;;;;;6.73;4.67;;;;;;;16.67;66.21;98658.34;5072666;28;20594;-50
2022/05/11 03:07:29;;;;;;;5.67;4.50;;;;;;;16.64;66.74;98669.25;5072995;28;20184;-50
2022/05/11 03:09:56;;;;;;;7.07;4.67;;;;;;;16.57;66.62;98657.00;5053513;28;20597;-50
2022/05/11 03:12:23;;;;;;;11.27;4.73;;;;;;;16.60;65.92;98651.38;5069154;28;20273;-49
2022/05/11 03:14:50;;;;;;;6.57;4.70;;;;;;;16.64;65.44;98650.00;5055358;28;20204;-50
2022/05/11 03:17:18;;;;;;;4.67;4.17;;;;;;;16.83;64.24;98651.19;5053667;28;20563;-50
2022/05/11 03:19:45;;;;;;;5.20;4.70;;;;;;;16.88;64.57;98647.94;5053543;28;20288;-50
2022/05/11 03:22:14;;;;;;;6.17;4.20;;;;;;;16.96;63.92;98647.81;5053369;28;20188;-50
2022/05/11 03:24:40;;;;;;;4.70;4.20;;;;;;;17.08;63.16;98641.03;5043178;28;20212;-50
2022/05/11 03:27:08;;;;;;;4.40;4.00;;;;;;;17.14;62.91;98649.19;5033900;28;20561;-50
2022/05/11 03:29:35;;;;;;;7.83;4.57;;;;;;;17.08;63.78;98638.41;5033809;28;20189;-52
2022/05/11 03:35:08;;;;;;;4.77;4.10;;;;;;;17.13;62.48;98637.00;5056842;28;20227;-50
2022/05/11 03:37:37;;;;;;;5.57;4.47;;;;;;;17.08;62.99;98635.75;5071613;28;20295;-50
2022/05/11 03:40:07;;;;;;;5.73;4.23;;;;;;;17.02;63.41;98646.25;5073313;28;20747;-50
2022/05/11 03:42:35;;;;;;;4.87;4.37;;;;;;;17.09;62.36;98640.03;5073195;28;20249;-50
2022/05/11 03:45:07;;;;;;;5.03;4.53;;;;;;;17.00;63.56;98641.19;5049624;28;20251;-50
2022/05/11 03:47:34;;;;;;;5.17;4.40;;;;;;;16.94;63.90;98637.47;5033027;28;20186;-50
2022/05/11 03:50:22;;;;;;;5.43;4.43;;;;;;;17.01;63.53;98628.78;5033198;28;20196;-50
2022/05/11 03:52:52;;;;;;;6.97;4.73;;;;;;;16.99;63.22;98629.00;5033002;28;20682;-50
2022/05/11 03:55:20;;;;;;;5.13;4.47;;;;;;;17.13;63.00;98644.91;5032766;28;20210;-50
2022/05/11 03:57:47;;;;;;;6.40;4.50;;;;;;;17.04;63.66;98636.31;5033082;28;20186;-51
2022/05/11 04:00:18;;;;;;;5.47;4.50;;;;;;;16.97;63.53;98639.72;5032903;28;20200;-50
2022/05/11 04:02:46;;;;;;;6.17;4.30;;;;;;;17.02;63.62;98644.44;5033045;28;20188;-50
2022/05/11 04:05:13;;;;;;;9.57;4.37;;;;;;;17.05;62.94;98640.59;5032594;28;20215;-50
2022/05/11 04:07:40;;;;;;;6.13;4.90;;;;;;;17.16;62.56;98637.44;5032892;28;20187;-50
2022/05/11 04:10:12;;;;;;;6.73;4.63;;;;;;;17.19;62.42;98637.03;5032823;28;20189;-50
2022/05/11 04:12:40;;;;;;;6.30;4.70;;;;;;;17.25;61.94;98635.47;5032614;28;20598;-50
2022/05/11 04:15:08;;;;;;;7.30;4.77;;;;;;;17.17;62.40;98631.13;5032278;28;20206;-49
2022/05/11 04:17:35;;;;;;;6.53;4.40;;;;;;;17.28;61.96;98635.06;5032734;28;20611;-50
2022/05/11 04:20:02;;;;;;;5.80;4.17;;;;;;;17.47;60.80;98630.91;5032723;28;20192;-50
2022/05/11 04:22:29;;;;;;;5.07;4.40;;;;;;;17.49;60.60;98634.16;5031343;28;20193;-51
2022/05/11 04:24:57;;;;;;;5.03;4.47;;;;;;;17.53;60.72;98637.22;5032372;28;20269;-50
2022/05/11 04:27:25;;;;;;;5.53;4.40;;;;;;;17.49;61.01;98636.00;5032632;28;20251;-50
2022/05/11 04:29:52;;;;;;;4.90;3.90;;;;;;;17.55;60.73;98635.19;5032503;28;20544;-51
2022/05/11 04:32:20;;;;;;;4.77;4.27;;;;;;;17.52;61.08;98644.34;5032425;28;20288;-50
2022/05/11 04:34:47;;;;;;;5.33;4.70;;;;;;;17.47;61.58;98641.47;5032185;28;20566;-50
2022/05/11 04:37:14;;;;;;;5.33;4.07;;;;;;;17.48;61.04;98639.66;5032460;28;20191;-50
2022/05/11 04:39:41;;;;;;;5.57;4.37;;;;;;;17.46;61.75;98633.75;5032288;28;20201;-50
2022/05/11 04:42:11;;;;;;;8.60;4.20;;;;;;;17.48;61.02;98635.19;5032381;28;20261;-50
2022/05/11 04:44:39;;;;;;;7.10;4.03;;;;;;;17.47;62.13;98638.81;5031866;28;20244;-50
2022/05/11 04:47:07;;;;;;;5.20;3.90;;;;;;;17.50;61.48;98640.25;5032297;28;20255;-50
2022/05/11 04:49:35;;;;;;;5.40;4.40;;;;;;;17.60;60.41;98639.91;5032346;28;20264;-50
2022/05/11 04:52:07;;;;;;;5.63;4.70;;;;;;;17.60;61.12;98640.69;5032050;28;20305;-51
2022/05/11 04:54:36;;;;;;;5.40;4.00;;;;;;;17.76;59.77;98639.56;5045206;28;20637;-50
2022/05/11 04:57:03;;;;;;;6.00;4.37;;;;;;;17.81;59.58;98644.25;5050927;28;20238;-50
2022/05/11 04:59:30;;;;;;;6.20;4.47;;;;;;;17.90;59.91;98642.25;5052078;28;20451;-50
2022/05/11 05:01:59;;;;;;;7.70;5.13;;;;;;;18.03;58.34;98642.31;5051188;28;20194;-50
2022/05/11 05:04:26;;;;;;;4.70;3.87;;;;;;;18.13;58.27;98637.47;5051667;28;20206;-51
2022/05/11 05:06:54;;;;;;;7.30;4.40;;;;;;;18.28;57.51;98632.03;5051867;28;20199;-50
2022/05/11 05:09:21;;;;;;;8.10;4.30;;;;;;;18.36;57.74;98641.56;5049614;28;20618;-52
2022/05/11 05:11:49;;;;;;;5.33;4.37;;;;;;;18.37;58.13;98645.03;5054297;28;20213;-51
2022/05/11 05:14:17;;;;;;;14.07;9.20;;;;;;;18.53;55.77;98646.47;5045050;28;20211;-50
2022/05/11 05:16:45;;;;;;;14.90;7.97;;;;;;;18.62;55.76;98647.06;5031956;28;20552;-50
2022/05/11 05:19:13;;;;;;;35.40;23.07;;;;;;;18.72;55.51;98647.50;5031636;28;20191;-50
2022/05/11 05:21:41;;;;;;;5.10;4.33;;;;;;;18.73;55.46;98644.66;5030567;28;20667;-50
2022/05/11 05:24:08;;;;;;;11.17;9.97;;;;;;;18.84;55.19;98650.34;5031878;28;20213;-50
2022/05/11 05:26:36;;;;;;;10.70;5.20;;;;;;;18.85;55.29;98644.84;5031866;28;20226;-50
2022/05/11 05:31:47;;;;;;;5.57;5.07;;;;;;;19.01;54.16;98653.41;5031559;28;20207;-50
2022/05/11 05:34:34;;;;;;;5.63;5.00;;;;;;;18.99;55.01;98650.16;5031912;28;20225;-50
2022/05/11 05:37:01;;;;;;;6.40;4.97;;;;;;;18.97;54.59;98652.19;5031368;28;20227;-50
2022/05/11 05:39:29;;;;;;;20.80;13.50;;;;;;;18.93;53.84;98651.78;5032158;28;20534;-50
2022/05/11 05:41:56;;;;;;;6.77;5.27;;;;;;;18.94;54.92;98642.00;5031645;28;20176;-50
2022/05/11 05:44:29;;;;;;;4.20;3.80;;;;;;;18.95;54.19;98647.09;5031061;28;20217;-50
2022/05/11 05:46:57;;;;;;;3.80;3.50;;;;;;;19.09;53.57;98658.50;5031759;28;20193;-50
2022/05/11 05:49:24;;;;;;;5.00;3.80;;;;;;;19.07;53.50;98649.94;5031688;28;20189;-50
2022/05/11 05:51:53;;;;;;;4.50;3.73;;;;;;;19.10;53.75;98646.91;5031428;28;20664;-50
2022/05/11 05:54:23;;;;;;;4.10;3.70;;;;;;;19.07;55.05;98652.59;5031339;28;20213;-50
2022/05/11 05:56:50;;;;;;;4.93;3.70;;;;;;;19.14;53.63;98645.47;5031365;28;20233;-50
2022/05/11 05:59:17;;;;;;;4.00;3.60;;;;;;;19.18;53.86;98649.31;5031546;28;20185;-51
2022/05/11 06:01:45;;;;;;;4.78;3.88;;;;;;;19.36;52.85;98650.50;5031156;28;20806;-49
2022/05/11 06:04:12;;;;;;;5.13;3.57;;;;;;;19.39;53.40;98650.09;5031190;28;20691;-49
2022/05/11 06:06:39;;;;;;;4.87;3.50;;;;;;;19.49;52.73;98647.00;5031481;28;20211;-50
2022/05/11 06:09:09;;;;;;;3.83;3.50;;;;;;;19.57;52.35;98645.97;5031499;28;20661;-49
2022/05/11 06:11:36;;;;;;;4.27;3.60;;;;;;;19.63;52.01;98642.47;5031409;28;20229;-50
2022/05/11 06:14:04;;;;;;;7.40;3.80;;;;;;;19.67;53.02;98650.81;5032794;28;20216;-49
2022/05/11 06:16:32;;;;;;;4.53;3.50;;;;;;;19.71;52.13;98657.31;5035160;28;20187;-49
2022/05/11 06:18:59;;;;;;;5.67;3.80;;;;;;;19.85;51.84;98658.06;5033917;28;20200;-49
2022/05/11 06:21:27;;;;;;;3.83;3.13;;;;;;;20.03;50.76;98652.13;5035151;28;20185;-50
2022/05/11 06:23:54;;;;;;;6.17;3.37;;;;;;;20.24;50.95;98664.22;5033173;28;20211;-49
2022/05/11 06:26:22;;;;;;;6.07;3.57;;;;;;;20.39;50.98;98660.47;5035028;28;20536;-49
2022/05/11 06:28:50;;;;;;;8.67;3.70;;;;;;;20.49;49.77;98656.31;5034993;28;20222;-49
2022/05/11 06:31:37;;;;;;;6.50;3.40;;;;;;;20.70;50.71;98650.84;5035245;28;20241;-49
2022/05/11 06:34:24;;;;;;;4.60;3.60;;;;;;;20.81;50.83;98655.47;5034672;28;20217;-50
2022/05/11 06:36:52;;;;;;;7.00;3.50;;;;;;;20.87;49.32;98651.97;5033453;28;20608;-50
2022/05/11 06:39:19;;;;;;;5.10;3.30;;;;;;;21.04;48.90;98659.38;5034787;28;20232;-50
2022/05/11 06:41:47;;;;;;;4.00;3.67;;;;;;;21.18;48.17;98652.13;5034532;28;20195;-49
2022/05/11 06:44:14;;;;;;;5.27;3.50;;;;;;;21.31;47.96;98651.94;5034159;28;20207;-50
2022/05/11 06:46:42;;;;;;;4.07;3.20;;;;;;;21.48;49.72;98659.34;5034623;28;20205;-52
2022/05/11 06:49:09;;;;;;;4.03;3.33;;;;;;;21.62;48.37;98649.41;5033293;28;20195;-50
2022/05/11 06:51:36;;;;;;;3.93;3.57;;;;;;;21.70;47.45;98656.28;5033213;28;20244;-50
2022/05/11 06:59:34;;;;;;;3.90;3.30;;;;;;;21.90;47.02;98645.38;5034407;28;20192;-50
2022/05/11 07:02:04;;;;;;;3.57;3.27;;;;;;;21.89;46.06;98647.25;5034338;28;20187;-50
2022/05/11 07:04:35;;;;;;;7.07;3.70;;;;;;;22.02;45.63;98642.78;5032630;28;20219;-51
2022/05/11 07:07:03;;;;;;;4.93;3.60;;;;;;;22.18;46.19;98654.63;5034316;28;20727;-50
2022/05/11 07:09:33;;;;;;;7.50;3.90;;;;;;;22.36;45.58;98649.25;5039235;28;20711;-50
2022/05/11 07:12:31;;;;;;;4.40;3.47;;;;;;;22.43;44.49;98649.13;5052932;28;20278;-50
2022/05/11 07:14:59;;;;;;;4.27;3.60;;;;;;;22.48;46.02;98664.47;5060949;28;20565;-49
2022/05/11 07:17:30;;;;;;;4.40;4.00;;;;;;;22.52;45.03;98639.81;5053735;28;20731;-49
2022/05/11 07:19:59;;;;;;;5.67;3.90;;;;;;;22.58;46.15;98650.59;5064466;28;20699;-50
2022/05/11 07:22:27;;;;;;;8.43;3.90;;;;;;;22.64;45.31;98639.03;5072958;28;20201;-50
2022/05/11 07:24:54;;;;;;;5.23;4.03;;;;;;;22.68;45.28;98637.53;5062038;28;20241;-49
2022/05/11 07:27:23;;;;;;;5.50;4.30;;;;;;;22.79;42.93;98639.41;5053522;28;20192;-50
2022/05/11 07:29:50;;;;;;;4.30;3.90;;;;;;;22.70;44.11;98641.59;5053457;28;20683;-49
2022/05/11 07:32:18;;;;;;;6.97;4.03;;;;;;;22.64;43.49;98647.84;5053897;28;20244;-49
2022/05/11 07:34:45;;;;;;;6.30;4.00;;;;;;;22.71;44.49;98642.41;5052840;28;21089;-49
2022/05/11 07:37:12;;;;;;;4.40;4.00;;;;;;;22.90;43.59;98640.44;5053350;28;20200;-49
2022/05/11 07:39:39;;;;;;;6.10;3.97;;;;;;;22.84;44.99;98646.69;5053270;28;20193;-49
2022/05/11 07:42:07;;;;;;;9.87;4.13;;;;;;;22.84;44.35;98638.69;5049577;28;20611;-50
2022/05/11 07:44:36;;;;;;;9.97;4.50;;;;;;;22.85;45.26;98638.47;5052580;28;20221;-49
2022/05/11 07:47:03;;;;;;;6.03;4.23;;;;;;;23.03;45.12;98644.72;5053156;28;20256;-49
2022/05/11 07:49:31;;;;;;;6.40;4.03;;;;;;;22.76;43.38;98637.19;5052843;28;20261;-49
2022/05/11 07:51:58;;;;;;;5.63;3.70;;;;;;;22.92;44.61;98643.66;5053167;28;20212;-49
2022/05/11 07:54:26;;;;;;;4.40;4.00;;;;;;;23.10;44.08;98641.94;5052751;28;20274;-49
2022/05/11 07:59:56;;;;;;;4.57;3.80;;;;;;;23.25;44.73;98630.84;5016617;28;20205;-50
2022/05/11 08:02:27;;;;;;;6.27;4.30;;;;;;;23.27;44.68;98634.88;5061173;28;20201;-49
2022/05/11 08:04:59;;;;;;;5.73;4.20;;;;;;;23.31;44.84;98632.59;5052444;28;20225;-49
2022/05/11 08:07:28;;;;;;;8.37;4.40;;;;;;;23.23;44.73;98628.41;5052906;28;20192;-49
2022/05/11 08:09:59;;;;;;;4.10;3.70;;;;;;;23.41;43.84;98619.47;5052724;28;20270;-49
2022/05/11 08:12:27;;;;;;;5.33;4.53;;;;;;;23.50;43.91;98625.25;5052613;28;20285;-49
2022/05/11 08:15:17;;;;;;;6.37;4.57;;;;;;;23.62;43.89;98619.88;5058150;28;20750;-49
2022/05/11 08:17:46;;;;;;;5.90;4.10;;;;;;;23.62;43.13;98617.19;5072066;28;20193;-50
2022/05/11 08:20:16;;;;;;;4.60;4.20;;;;;;;23.52;43.91;98625.81;5072413;28;20272;-49
2022/05/11 08:22:45;;;;;;;7.03;4.23;;;;;;;23.54;43.48;98618.41;5055310;28;20239;-49
2022/05/11 08:25:14;;;;;;;7.37;4.10;;;;;;;23.68;44.52;98605.59;5052219;28;20221;-49
2022/05/11 08:27:41;;;;;;;6.57;4.53;;;;;;;23.74;44.77;98623.31;5052458;28;20193;-50
2022/05/11 08:35:44;;;;;;;5.10;4.57;;;;;;;24.03;44.09;98611.84;5052169;28;20225;-49
2022/05/11 08:38:11;;;;;;;4.93;4.43;;;;;;;24.05;44.65;98615.09;5052333;28;20241;-50
2022/05/11 08:40:47;;;;;;;5.13;4.30;;;;;;;24.07;43.61;98614.88;5050850;28;20697;-49
2022/05/11 08:43:17;;;;;;;9.63;4.10;;;;;;;24.26;44.67;98602.94;5047782;28;20617;-50
2022/05/11 08:45:51;;;;;;;6.70;4.17;;;;;;;24.30;43.68;98611.25;5048801;28;20219;-50
2022/05/11 08:48:29;;;;;;;6.00;4.20;;;;;;;24.36;42.92;98598.81;5050890;28;20194;-50
2022/05/11 08:50:56;;;;;;;4.43;4.03;;;;;;;24.28;42.89;98614.16;5061680;28;20615;-50
2022/05/11 08:53:37;;;;;;;4.77;4.37;;;;;;;24.40;42.13;98614.09;5071175;28;20214;-49
2022/05/11 08:56:12;;;;;;;5.23;4.40;;;;;;;24.41;42.43;98618.38;5068101;28;20198;-50
2022/05/11 08:58:45;;;;;;;5.90;4.30;;;;;;;24.29;42.89;98610.47;5052116;28;20209;-50
2022/05/11 09:01:19;;;;;;;5.87;4.57;;;;;;;24.22;43.92;98619.66;5050704;28;20206;-50
2022/05/11 09:04:11;;;;;;;5.63;4.70;;;;;;;24.15;43.24;98606.47;5051920;28;20217;-49
2022/05/11 09:06:43;;;;;;;7.33;4.70;;;;;;;24.26;43.19;98602.94;5051993;28;20280;-50
2022/05/11 09:09:12;;;;;;;5.30;4.80;;;;;;;24.32;43.39;98603.81;5042489;28;20206;-49
2022/05/11 09:11:43;;;;;;;6.20;4.60;;;;;;;24.47;43.21;98611.25;5051060;28;20198;-49
2022/05/11 09:14:14;;;;;;;7.50;4.30;;;;;;;24.48;43.73;98607.53;5043996;28;20213;-49
2022/05/11 09:16:44;;;;;;;13.43;5.10;;;;;;;24.40;43.34;98610.59;5068474;28;20255;-50
2022/05/11 09:19:14;;;;;;;5.13;4.63;;;;;;;24.55;44.04;98613.50;5059639;28;20249;-49
2022/05/11 09:21:50;;;;;;;5.10;4.60;;;;;;;24.72;43.73;98608.22;5051659;28;20219;-49
2022/05/11 09:24:28;;;;;;;6.83;4.50;;;;;;;24.80;42.49;98598.97;5051630;28;20211;-50
2022/05/11 09:27:06;;;;;;;4.77;4.27;;;;;;;24.77;43.89;98602.13;5051557;28;20792;-49
2022/05/11 09:29:37;;;;;;;7.73;4.73;;;;;;;24.85;43.49;98615.06;5051722;28;20194;-50
2022/05/11 09:32:20;;;;;;;5.13;4.43;;;;;;;24.90;43.11;98590.31;5054814;28;20207;-49
2022/05/11 09:34:49;;;;;;;5.87;4.50;;;;;;;24.98;43.17;98599.75;5053302;28;20223;-50
2022/05/11 09:37:29;;;;;;;5.87;4.53;;;;;;;25.03;42.94;98595.28;5051543;28;20190;-50
2022/05/11 09:40:08;;;;;;;6.00;4.63;;;;;;;24.98;42.46;98591.75;5051680;28;20644;-49
2022/05/11 09:42:35;;;;;;;5.03;4.53;;;;;;;24.90;42.20;98590.31;5049916;28;20201;-49
2022/05/11 09:45:04;;;;;;;6.03;4.37;;;;;;;25.08;43.25;98583.88;5066337;28;20219;-50
2022/05/11 09:47:33;;;;;;;6.63;4.37;;;;;;;25.13;42.63;98593.78;5051214;28;20698;-50
2022/05/11 09:50:21;;;;;;;6.20;4.10;;;;;;;25.12;41.84;98584.16;5054852;28;20194;-49
2022/05/11 09:52:49;;;;;;;5.67;4.20;;;;;;;25.30;40.73;98593.75;5056412;28;20192;-50
2022/05/11 09:55:20;;;;;;;5.70;4.40;;;;;;;25.14;40.56;98590.91;5060290;28;20676;-50
2022/05/11 09:57:58;;;;;;;7.07;4.53;;;;;;;25.29;41.09;98581.47;5049605;28;20183;-50
2022/05/11 10:00:29;;;;;;;6.03;4.60;;;;;;;25.31;41.01;98585.47;5054370;28;20195;-50
2022/05/11 10:03:02;;;;;;;6.73;4.40;;;;;;;25.33;40.68;98588.72;5061696;28;20190;-50
2022/05/11 10:05:37;;;;;;;11.63;4.60;;;;;;;25.35;39.17;98575.91;5057294;28;20291;-50
2022/05/11 10:08:15;;;;;;;6.33;4.63;;;;;;;25.33;40.34;98585.25;5065394;28;20197;-50
2022/05/11 10:10:46;;;;;;;5.13;4.40;;;;;;;25.52;40.60;98587.59;5059607;28;20183;-49
2022/05/11 10:13:18;;;;;;;5.30;4.50;;;;;;;25.59;41.15;98581.03;5057464;28;20223;-50
2022/05/11 10:24:31;;;;;;;6.90;4.40;;;;;;;25.68;40.59;98573.34;5057696;28;20696;-49
2022/05/11 10:27:05;;;;;;;7.40;4.40;;;;;;;25.54;38.54;98572.13;5060997;28;20238;-51
2022/05/11 10:29:44;;;;;;;6.40;4.30;;;;;;;25.60;39.73;98569.28;5057947;28;20204;-50
2022/05/11 10:32:20;;;;;;;10.57;4.67;;;;;;;25.78;40.20;98559.31;5053093;28;20796;-50
2022/05/11 10:34:59;;;;;;;4.90;4.13;;;;;;;25.89;39.58;98557.53;5056615;28;20302;-50
2022/05/11 10:37:35;;;;;;;6.10;4.57;;;;;;;25.93;39.78;98556.78;5056181;28;20215;-50
2022/05/11 10:40:17;;;;;;;4.87;4.47;;;;;;;26.03;39.35;98555.22;5049639;28;20200;-49
2022/05/11 10:42:50;;;;;;;4.67;4.03;;;;;;;26.01;39.12;98558.16;5050125;28;20281;-50
2022/05/11 10:45:20;;;;;;;6.93;4.20;;;;;;;26.07;38.50;98559.84;5053123;28;20464;-50
2022/05/11 10:48:10;;;;;;;5.17;4.67;;;;;;;26.29;37.66;98556.28;5049982;28;20195;-50
2022/05/11 10:50:50;;;;;;;6.03;4.20;;;;;;;26.40;38.56;98551.03;5063937;28;20292;-50
2022/05/11 10:53:32;;;;;;;5.50;3.90;;;;;;;26.12;37.19;98550.25;5048153;28;20639;-50
2022/05/11 10:56:14;;;;;;;4.50;4.00;;;;;;;26.35;38.58;98549.09;5047110;28;20206;-50
2022/05/11 10:59:08;;;;;;;4.43;3.87;;;;;;;26.25;36.78;98541.81;5053567;28;20195;-50
2022/05/11 11:01:48;;;;;;;4.00;3.60;;;;;;;26.33;36.71;98541.34;5048417;28;20492;-49
2022/05/11 11:04:41;;;;;;;8.50;4.13;;;;;;;26.50;38.56;98524.31;5046056;28;20214;-50
2022/05/11 11:07:21;;;;;;;6.77;3.97;;;;;;;26.53;37.47;98529.97;5045122;28;20190;-49
2022/05/11 11:10:03;;;;;;;5.87;4.17;;;;;;;26.71;36.72;98540.47;5047587;28;20212;-50
2022/05/11 11:12:48;;;;;;;5.53;4.17;;;;;;;26.39;36.62;98512.72;5050419;28;20562;-50
2022/05/11 11:15:19;;;;;;;7.37;4.07;;;;;;;26.52;37.99;98522.16;5051050;28;20221;-50
2022/05/11 11:17:47;;;;;;;7.00;4.10;;;;;;;26.76;36.59;98517.25;5054265;28;20662;-50
2022/05/11 11:20:17;;;;;;;4.17;3.83;;;;;;;26.86;37.58;98527.22;5051077;28;20195;-51
2022/05/11 11:23:12;;;;;;;6.80;4.47;;;;;;;26.89;36.87;98510.63;5054326;28;20190;-50
2022/05/11 11:25:51;;;;;;;4.53;4.13;;;;;;;26.96;37.62;98515.75;5048617;28;20590;-49
2022/05/11 11:28:20;;;;;;;5.70;4.10;;;;;;;26.96;36.80;98516.53;5057964;28;20252;-50
2022/05/11 11:31:19;;;;;;;4.60;4.13;;;;;;;27.16;36.28;98506.97;5064415;28;20195;-50
2022/05/11 11:34:23;;;;;;;5.37;4.33;;;;;;;27.11;36.72;98512.31;5072569;28;20213;-49
2022/05/11 11:36:50;;;;;;;9.50;4.22;;;;;;;27.22;36.70;98497.88;5039641;28;20215;-49
2022/05/11 11:39:55;;;;;;;4.90;4.40;;;;;;;27.41;37.90;98510.81;5072916;28;20185;-52
2022/05/11 11:42:36;;;;;;;4.77;4.10;;;;;;;27.29;36.73;98489.59;5073169;28;20675;-49
2022/05/11 11:45:06;;;;;;;4.40;3.90;;;;;;;27.42;36.48;98501.69;5063890;28;20232;-49
2022/05/11 11:47:40;;;;;;;6.40;4.05;;;;;;;27.42;36.01;98517.78;5060980;28;20274;-49
2022/05/11 11:50:18;;;;;;;6.95;3.90;;;;;;;27.18;35.01;98499.50;5072697;28;20198;-49
2022/05/11 11:52:47;;;;;;;7.40;4.00;;;;;;;27.03;35.76;98494.88;5071834;28;20304;-49
2022/05/11 11:55:27;;;;;;;4.37;3.97;;;;;;;26.93;36.13;98487.59;5071536;28;20217;-50
2022/05/11 11:58:11;;;;;;;8.00;4.60;;;;;;;27.06;36.55;98498.91;5068526;28;20195;-49
2022/05/11 12:01:00;;;;;;;7.50;4.50;;;;;;;26.92;36.36;98477.16;5064749;28;20671;-50
2022/05/11 12:03:35;;;;;;;7.57;4.20;;;;;;;27.10;34.86;98478.56;5071858;28;20190;-50
2022/05/11 12:17:27;;;;;;;7.00;4.10;;;;;;;27.87;34.80;98488.63;5060109;28;20736;-49
2022/05/11 12:20:01;;;;;;;8.95;3.78;;;;;;;28.27;36.81;98489.69;5070169;28;20189;-49
2022/05/11 12:22:31;;;;;;;8.82;3.65;;;;;;;28.24;33.49;98467.97;5052195;28;20200;-49
2022/05/11 12:25:01;;;;;;;7.83;4.17;;;;;;;28.25;34.09;98464.19;5070124;28;20279;-49
2022/05/11 12:27:31;;;;;;;5.20;3.92;;;;;;;28.28;33.36;98464.44;5072073;28;20195;-50
2022/05/11 12:30:05;;;;;;;6.13;3.53;;;;;;;28.73;34.15;98461.09;5071916;28;20239;-49
2022/05/11 12:32:35;;;;;;;10.27;4.03;;;;;;;28.82;34.21;98462.16;5054850;28;20204;-50
2022/05/11 12:35:10;;;;;;;5.70;3.88;;;;;;;28.95;33.03;98458.06;5051294;28;20223;-50